N307TT KMKY-67FL
Flight info
| Callsign | N307TT |
|---|---|
| Flight time | 0h 40m |
| Altitude | 8000 |
| Route | CITAG V225 RSW V7 ROGAN |
| Aircraft | BT36/L-VGD/C |
Departure
| Time | 2026-05-06 23:04 |
|---|---|
| Airport | Marco Island Executive Airport (KMKY) |
Arrival
| Time | 2026-05-06 23:44 |
|---|---|
| Airport | Bald Eagle Airstrip (67FL) |
| Time | Latitude | Longitude | Altitude | Speed | Heading |
|---|---|---|---|---|---|
| 2026-05-06 22:30 | 26.00037 | -81.67492 | 15 ft | 0 kts | 269° |
| 2026-05-06 22:53 | 26.00037 | -81.67497 | 15 ft | 0 kts | 274° |
| 2026-05-06 22:54 | 26.00038 | -81.67498 | 15 ft | 1 kts | 282° |
| 2026-05-06 22:54 | 26.00056 | -81.67508 | 16 ft | 6 kts | 348° |
| 2026-05-06 22:54 | 26.00098 | -81.67479 | 16 ft | 11 kts | 83° |
| 2026-05-06 22:54 | 26.00100 | -81.67465 | 16 ft | 0 kts | 77° |
| 2026-05-06 23:01 | 26.00119 | -81.67446 | 16 ft | 11 kts | 31° |
| 2026-05-06 23:01 | 26.00155 | -81.67414 | 7 ft | 8 kts | 96° |
| 2026-05-06 23:02 | 26.00131 | -81.67404 | 23 ft | 0 kts | 167° |
| 2026-05-06 23:03 | 26.00128 | -81.67403 | 22 ft | 5 kts | 167° |
| 2026-05-06 23:03 | 25.99764 | -81.67314 | 37 ft | 92 kts | 171° |
| 2026-05-06 23:04 | 25.99039 | -81.67128 | 334 ft | 120 kts | 169° |
| 2026-05-06 23:04 | 25.98190 | -81.66863 | 776 ft | 132 kts | 166° |
| 2026-05-06 23:04 | 25.97330 | -81.66536 | 1255 ft | 133 kts | 153° |
| 2026-05-06 23:04 | 25.96743 | -81.65783 | 1765 ft | 131 kts | 115° |
| 2026-05-06 23:05 | 25.96554 | -81.64761 | 2097 ft | 139 kts | 91° |
| 2026-05-06 23:05 | 25.96876 | -81.63747 | 2530 ft | 142 kts | 60° |
| 2026-05-06 23:05 | 25.97439 | -81.62904 | 3091 ft | 131 kts | 52° |
| 2026-05-06 23:05 | 25.98168 | -81.62371 | 3731 ft | 123 kts | 23° |
| 2026-05-06 23:06 | 25.99049 | -81.62347 | 4190 ft | 135 kts | 345° |
| 2026-05-06 23:06 | 25.99810 | -81.62909 | 4814 ft | 130 kts | 316° |
| 2026-05-06 23:06 | 26.00353 | -81.63720 | 5328 ft | 134 kts | 298° |
| 2026-05-06 23:06 | 26.00710 | -81.64654 | 5897 ft | 131 kts | 288° |
| 2026-05-06 23:07 | 26.00918 | -81.65641 | 6447 ft | 132 kts | 278° |
| 2026-05-06 23:07 | 26.00989 | -81.66651 | 6994 ft | 128 kts | 274° |
| 2026-05-06 23:07 | 26.00997 | -81.67647 | 7396 ft | 133 kts | 267° |
| 2026-05-06 23:07 | 26.01385 | -81.68604 | 7308 ft | 157 kts | 331° |
| 2026-05-06 23:08 | 26.02350 | -81.69058 | 7597 ft | 147 kts | 336° |
| 2026-05-06 23:08 | 26.03258 | -81.69619 | 7713 ft | 150 kts | 335° |
| 2026-05-06 23:08 | 26.04204 | -81.70066 | 7878 ft | 146 kts | 346° |
| 2026-05-06 23:08 | 26.05191 | -81.70406 | 7972 ft | 152 kts | 344° |
| 2026-05-06 23:09 | 26.06215 | -81.70792 | 8027 ft | 159 kts | 342° |
| 2026-05-06 23:09 | 26.07293 | -81.71242 | 7978 ft | 176 kts | 344° |
| 2026-05-06 23:09 | 26.08484 | -81.71668 | 8054 ft | 183 kts | 344° |
| 2026-05-06 23:09 | 26.09721 | -81.72109 | 8107 ft | 188 kts | 345° |
| 2026-05-06 23:10 | 26.10995 | -81.72534 | 8085 ft | 195 kts | 346° |
| 2026-05-06 23:10 | 26.12285 | -81.73024 | 8166 ft | 194 kts | 338° |
| 2026-05-06 23:10 | 26.13532 | -81.73653 | 8108 ft | 197 kts | 338° |
| 2026-05-06 23:10 | 26.14768 | -81.74317 | 8020 ft | 199 kts | 337° |
| 2026-05-06 23:11 | 26.16056 | -81.74782 | 7970 ft | 197 kts | 350° |
| 2026-05-06 23:11 | 26.17419 | -81.75186 | 7754 ft | 206 kts | 343° |
| 2026-05-06 23:11 | 26.18735 | -81.75745 | 7814 ft | 200 kts | 340° |
| 2026-05-06 23:11 | 26.20007 | -81.76323 | 7902 ft | 195 kts | 341° |
| 2026-05-06 23:12 | 26.21258 | -81.76876 | 8006 ft | 192 kts | 340° |
| 2026-05-06 23:12 | 26.22508 | -81.77430 | 8092 ft | 196 kts | 340° |
| 2026-05-06 23:12 | 26.23805 | -81.77936 | 8088 ft | 198 kts | 353° |
| 2026-05-06 23:12 | 26.25186 | -81.77942 | 8098 ft | 200 kts | 4° |
| 2026-05-06 23:13 | 26.26567 | -81.77916 | 8101 ft | 202 kts | 3° |
| 2026-05-06 23:13 | 26.27974 | -81.77907 | 8104 ft | 203 kts | 2° |
| 2026-05-06 23:13 | 26.29381 | -81.77888 | 8105 ft | 203 kts | 3° |
| 2026-05-06 23:13 | 26.30793 | -81.77869 | 8105 ft | 203 kts | 2° |
| 2026-05-06 23:14 | 26.32209 | -81.77854 | 8104 ft | 204 kts | 2° |
| 2026-05-06 23:14 | 26.33626 | -81.77836 | 8105 ft | 204 kts | 3° |
| 2026-05-06 23:14 | 26.35043 | -81.77819 | 8095 ft | 204 kts | 2° |
| 2026-05-06 23:14 | 26.36457 | -81.77797 | 8095 ft | 203 kts | 3° |
| 2026-05-06 23:15 | 26.37849 | -81.77779 | 8096 ft | 203 kts | 2° |
| 2026-05-06 23:15 | 26.39260 | -81.77761 | 8096 ft | 203 kts | 3° |
| 2026-05-06 23:15 | 26.40670 | -81.77747 | 8097 ft | 202 kts | 4° |
| 2026-05-06 23:15 | 26.42071 | -81.77725 | 8096 ft | 200 kts | 3° |
| 2026-05-06 23:16 | 26.43465 | -81.77704 | 8097 ft | 200 kts | 2° |
| 2026-05-06 23:16 | 26.44858 | -81.77688 | 8097 ft | 200 kts | 3° |
| 2026-05-06 23:16 | 26.46250 | -81.77670 | 8098 ft | 200 kts | 3° |
| 2026-05-06 23:16 | 26.47635 | -81.77656 | 8095 ft | 199 kts | 3° |
| 2026-05-06 23:17 | 26.49022 | -81.77636 | 8097 ft | 199 kts | 2° |
| 2026-05-06 23:17 | 26.50387 | -81.77617 | 8096 ft | 199 kts | 3° |
| 2026-05-06 23:17 | 26.51771 | -81.77599 | 8096 ft | 199 kts | 2° |
| 2026-05-06 23:17 | 26.53158 | -81.77608 | 8098 ft | 200 kts | 357° |
| 2026-05-06 23:18 | 26.54540 | -81.77841 | 8094 ft | 200 kts | 354° |
| 2026-05-06 23:18 | 26.55916 | -81.78058 | 8095 ft | 200 kts | 354° |
| 2026-05-06 23:18 | 26.57304 | -81.78278 | 8095 ft | 202 kts | 354° |
| 2026-05-06 23:18 | 26.58694 | -81.78502 | 8096 ft | 202 kts | 355° |
| 2026-05-06 23:19 | 26.60079 | -81.78723 | 8097 ft | 200 kts | 353° |
| 2026-05-06 23:19 | 26.61458 | -81.78951 | 8096 ft | 200 kts | 353° |
| 2026-05-06 23:19 | 26.62819 | -81.79175 | 8097 ft | 200 kts | 354° |
| 2026-05-06 23:19 | 26.64200 | -81.79396 | 8096 ft | 200 kts | 354° |
| 2026-05-06 23:20 | 26.65580 | -81.79616 | 8096 ft | 200 kts | 354° |
| 2026-05-06 23:20 | 26.66960 | -81.79838 | 8095 ft | 200 kts | 353° |
| 2026-05-06 23:20 | 26.68336 | -81.80062 | 8094 ft | 200 kts | 354° |
| 2026-05-06 23:20 | 26.69714 | -81.80288 | 8095 ft | 201 kts | 352° |
| 2026-05-06 23:21 | 26.71105 | -81.80510 | 8095 ft | 203 kts | 353° |
| 2026-05-06 23:21 | 26.72487 | -81.80733 | 8105 ft | 203 kts | 353° |
| 2026-05-06 23:21 | 26.73888 | -81.80962 | 8106 ft | 204 kts | 354° |
| 2026-05-06 23:21 | 26.75294 | -81.81192 | 8107 ft | 204 kts | 353° |
| 2026-05-06 23:22 | 26.76703 | -81.81418 | 8111 ft | 205 kts | 353° |
| 2026-05-06 23:22 | 26.78113 | -81.81651 | 8110 ft | 205 kts | 354° |
| 2026-05-06 23:22 | 26.79525 | -81.81877 | 8111 ft | 205 kts | 354° |
| 2026-05-06 23:22 | 26.80937 | -81.82104 | 8110 ft | 204 kts | 353° |
| 2026-05-06 23:23 | 26.82334 | -81.82329 | 8112 ft | 201 kts | 354° |
| 2026-05-06 23:23 | 26.83700 | -81.82552 | 8112 ft | 202 kts | 353° |
| 2026-05-06 23:23 | 26.85085 | -81.82775 | 8112 ft | 200 kts | 353° |
| 2026-05-06 23:23 | 26.86465 | -81.83000 | 8112 ft | 202 kts | 354° |
| 2026-05-06 23:24 | 26.87858 | -81.83229 | 8111 ft | 203 kts | 354° |
| 2026-05-06 23:24 | 26.89254 | -81.83458 | 8112 ft | 202 kts | 354° |
| 2026-05-06 23:24 | 26.90644 | -81.83682 | 8112 ft | 202 kts | 354° |
| 2026-05-06 23:24 | 26.92037 | -81.83907 | 8114 ft | 203 kts | 354° |
| 2026-05-06 23:25 | 26.93432 | -81.84135 | 8116 ft | 203 kts | 353° |
| 2026-05-06 23:25 | 26.94835 | -81.84366 | 8115 ft | 204 kts | 353° |
| 2026-05-06 23:25 | 26.96222 | -81.84589 | 8114 ft | 204 kts | 353° |
| 2026-05-06 23:25 | 26.97620 | -81.84816 | 8114 ft | 202 kts | 354° |
| 2026-05-06 23:26 | 26.99009 | -81.85040 | 8112 ft | 201 kts | 353° |
| 2026-05-06 23:26 | 27.00397 | -81.85266 | 8110 ft | 201 kts | 354° |
| 2026-05-06 23:26 | 27.01783 | -81.85495 | 8109 ft | 201 kts | 353° |
| 2026-05-06 23:26 | 27.03170 | -81.85718 | 8108 ft | 201 kts | 353° |
| 2026-05-06 23:27 | 27.04558 | -81.85943 | 8107 ft | 202 kts | 353° |
| 2026-05-06 23:27 | 27.05951 | -81.86168 | 8108 ft | 202 kts | 353° |
| 2026-05-06 23:27 | 27.07343 | -81.86397 | 8107 ft | 202 kts | 353° |
| 2026-05-06 23:27 | 27.08716 | -81.86618 | 8106 ft | 202 kts | 354° |
| 2026-05-06 23:28 | 27.10106 | -81.86847 | 8106 ft | 202 kts | 352° |
| 2026-05-06 23:28 | 27.11496 | -81.87075 | 8105 ft | 202 kts | 354° |
| 2026-05-06 23:28 | 27.12887 | -81.87303 | 8105 ft | 202 kts | 354° |
| 2026-05-06 23:28 | 27.14278 | -81.87530 | 8104 ft | 202 kts | 353° |
| 2026-05-06 23:29 | 27.15670 | -81.87754 | 8106 ft | 202 kts | 354° |
| 2026-05-06 23:29 | 27.17059 | -81.87982 | 8106 ft | 202 kts | 353° |
| 2026-05-06 23:29 | 27.18451 | -81.88209 | 8105 ft | 202 kts | 353° |
| 2026-05-06 23:29 | 27.19844 | -81.88435 | 8105 ft | 202 kts | 353° |
| 2026-05-06 23:30 | 27.21217 | -81.88661 | 8103 ft | 202 kts | 354° |
| 2026-05-06 23:30 | 27.22607 | -81.88888 | 8103 ft | 202 kts | 353° |
| 2026-05-06 23:30 | 27.23997 | -81.89117 | 8097 ft | 202 kts | 354° |
| 2026-05-06 23:30 | 27.25331 | -81.89593 | 8092 ft | 205 kts | 328° |
| 2026-05-06 23:31 | 27.26409 | -81.90655 | 8094 ft | 206 kts | 318° |
| 2026-05-06 23:31 | 27.27463 | -81.91760 | 8096 ft | 208 kts | 318° |
| 2026-05-06 23:31 | 27.28532 | -81.92863 | 8098 ft | 209 kts | 318° |
| 2026-05-06 23:31 | 27.29597 | -81.93963 | 8099 ft | 207 kts | 318° |
| 2026-05-06 23:32 | 27.30656 | -81.95060 | 8096 ft | 207 kts | 319° |
| 2026-05-06 23:32 | 27.31698 | -81.96140 | 8102 ft | 206 kts | 319° |
| 2026-05-06 23:32 | 27.32755 | -81.97234 | 8099 ft | 207 kts | 319° |
| 2026-05-06 23:32 | 27.33811 | -81.98328 | 8100 ft | 206 kts | 319° |
| 2026-05-06 23:33 | 27.34868 | -81.99420 | 8098 ft | 206 kts | 318° |
| 2026-05-06 23:33 | 27.35924 | -82.00515 | 8098 ft | 206 kts | 318° |
| 2026-05-06 23:33 | 27.36981 | -82.01610 | 8100 ft | 207 kts | 318° |
| 2026-05-06 23:33 | 27.38038 | -82.02706 | 8100 ft | 207 kts | 319° |
| 2026-05-06 23:34 | 27.39099 | -82.03807 | 8101 ft | 207 kts | 319° |
| 2026-05-06 23:34 | 27.40157 | -82.04905 | 8103 ft | 207 kts | 319° |
| 2026-05-06 23:34 | 27.41219 | -82.06006 | 8102 ft | 208 kts | 318° |
| 2026-05-06 23:34 | 27.42266 | -82.07092 | 8102 ft | 207 kts | 318° |
| 2026-05-06 23:35 | 27.43308 | -82.08171 | 8101 ft | 192 kts | 318° |
| 2026-05-06 23:35 | 27.44215 | -82.09101 | 8086 ft | 163 kts | 319° |
| 2026-05-06 23:35 | 27.44996 | -82.09920 | 8081 ft | 145 kts | 319° |
| 2026-05-06 23:35 | 27.45722 | -82.10677 | 7923 ft | 144 kts | 319° |
| 2026-05-06 23:36 | 27.46471 | -82.11451 | 7701 ft | 148 kts | 319° |
| 2026-05-06 23:36 | 27.47236 | -82.12245 | 7452 ft | 150 kts | 319° |
| 2026-05-06 23:36 | 27.48008 | -82.13047 | 7215 ft | 151 kts | 320° |
| 2026-05-06 23:36 | 27.48783 | -82.13853 | 6984 ft | 153 kts | 320° |
| 2026-05-06 23:37 | 27.49566 | -82.14666 | 6668 ft | 160 kts | 320° |
| 2026-05-06 23:37 | 27.50485 | -82.15409 | 6188 ft | 166 kts | 346° |
| 2026-05-06 23:37 | 27.51583 | -82.15240 | 5709 ft | 162 kts | 36° |
| 2026-05-06 23:37 | 27.52173 | -82.14207 | 5237 ft | 160 kts | 77° |
| 2026-05-06 23:38 | 27.52413 | -82.12979 | 4769 ft | 161 kts | 79° |
| 2026-05-06 23:38 | 27.52640 | -82.11742 | 4294 ft | 162 kts | 79° |
| 2026-05-06 23:38 | 27.52792 | -82.10497 | 3809 ft | 160 kts | 97° |
| 2026-05-06 23:38 | 27.52211 | -82.09457 | 3326 ft | 164 kts | 145° |
| 2026-05-06 23:39 | 27.51113 | -82.09107 | 2846 ft | 165 kts | 169° |
| 2026-05-06 23:39 | 27.49998 | -82.08897 | 2379 ft | 165 kts | 170° |
| 2026-05-06 23:39 | 27.48872 | -82.08645 | 1905 ft | 165 kts | 171° |
| 2026-05-06 23:39 | 27.47755 | -82.08349 | 1419 ft | 164 kts | 169° |
| 2026-05-06 23:40 | 27.46657 | -82.08046 | 1040 ft | 157 kts | 169° |
| 2026-05-06 23:40 | 27.45679 | -82.07766 | 1017 ft | 134 kts | 171° |
| 2026-05-06 23:40 | 27.44820 | -82.07500 | 1012 ft | 121 kts | 171° |
| 2026-05-06 23:40 | 27.44076 | -82.07448 | 1010 ft | 98 kts | 212° |
| 2026-05-06 23:41 | 27.43543 | -82.07818 | 1012 ft | 86 kts | 214° |
| 2026-05-06 23:41 | 27.43054 | -82.08143 | 986 ft | 76 kts | 213° |
| 2026-05-06 23:41 | 27.42585 | -82.08455 | 1031 ft | 86 kts | 213° |
| 2026-05-06 23:41 | 27.42036 | -82.08871 | 1051 ft | 103 kts | 216° |
| 2026-05-06 23:42 | 27.41649 | -82.09483 | 1043 ft | 96 kts | 268° |
| 2026-05-06 23:42 | 27.42072 | -82.10022 | 1030 ft | 105 kts | 348° |
| 2026-05-06 23:42 | 27.42776 | -82.10108 | 1041 ft | 101 kts | 348° |
| 2026-05-06 23:42 | 27.43463 | -82.10187 | 1025 ft | 95 kts | 349° |
| 2026-05-06 23:43 | 27.44096 | -82.10265 | 982 ft | 93 kts | 3° |
| 2026-05-06 23:43 | 27.44746 | -82.10005 | 834 ft | 97 kts | 15° |
| 2026-05-06 23:43 | 27.45357 | -82.09826 | 629 ft | 85 kts | 356° |
| 2026-05-06 23:43 | 27.45912 | -82.09802 | 476 ft | 80 kts | 346° |
| 2026-05-06 23:44 | 27.46276 | -82.10167 | 304 ft | 74 kts | 272° |
| 2026-05-06 23:44 | 27.45967 | -82.10465 | 117 ft | 73 kts | 178° |
| 2026-05-06 23:44 | 27.45502 | -82.10460 | 93 ft | 60 kts | 187° |
| 2026-05-06 23:44 | 27.45181 | -82.10474 | 89 ft | 35 kts | 180° |
| 2026-05-06 23:45 | 27.45061 | -82.10477 | 87 ft | 9 kts | 212° |
| 2026-05-06 23:45 | 27.45054 | -82.10466 | 89 ft | 3 kts | 8° |
| 2026-05-06 23:45 | 27.45056 | -82.10465 | 90 ft | 0 kts | 13° |